createdAt,value
2023-05-21T00:01:38.049Z,99815.31
2023-05-21T00:03:42.550Z,99811.78
2023-05-21T00:05:47.395Z,99811.56
2023-05-21T00:07:53.667Z,99811.78
2023-05-21T00:09:58.076Z,99815.56
2023-05-21T00:12:01.358Z,99808.28
2023-05-21T00:14:04.373Z,99805.81
2023-05-21T00:16:08.224Z,99811.22
2023-05-21T00:18:11.416Z,99812.28
2023-05-21T00:20:14.583Z,99807.69
2023-05-21T00:22:17.555Z,99804.16
2023-05-21T00:24:20.807Z,99800.53
2023-05-21T00:26:25.559Z,99808.16
2023-05-21T00:28:33.108Z,99802.97
2023-05-21T00:30:36.164Z,99801.56
2023-05-21T00:32:39.235Z,99804.50
2023-05-21T00:34:42.614Z,99802.63
2023-05-21T00:36:46.083Z,99804.75
2023-05-21T00:38:49.094Z,99798.53
2023-05-21T00:40:52.349Z,99793.59
2023-05-21T00:42:57.692Z,99790.91
2023-05-21T00:45:00.994Z,99798.66
2023-05-21T00:47:05.071Z,99783.38
2023-05-21T00:49:08.500Z,99782.56
2023-05-21T00:51:11.632Z,99785.50
2023-05-21T00:53:15.736Z,99788.44
2023-05-21T00:55:18.676Z,99781.84
2023-05-21T00:57:23.775Z,99778.91
2023-05-21T00:59:28.442Z,99778.56
2023-05-21T01:01:34.277Z,99782.06
2023-05-21T01:03:38.979Z,99773.16
2023-05-21T01:05:45.667Z,99767.00
2023-05-21T01:07:49.252Z,99776.56
2023-05-21T01:09:52.722Z,99770.06
2023-05-21T01:11:56.772Z,99776.97
2023-05-21T01:13:59.973Z,99767.25
2023-05-21T01:16:07.213Z,99772.88
2023-05-21T01:18:10.433Z,99763.59
2023-05-21T01:20:14.901Z,99767.34
2023-05-21T01:22:21.693Z,99765.00
2023-05-21T01:24:26.250Z,99757.84
2023-05-21T01:26:30.743Z,99758.63
2023-05-21T01:28:34.969Z,99756.41
2023-05-21T01:30:39.881Z,99754.41
2023-05-21T01:32:50.071Z,99745.50
2023-05-21T01:35:00.839Z,99752.78
2023-05-21T01:37:13.552Z,99749.00
2023-05-21T01:39:21.544Z,99751.13
2023-05-21T01:41:27.995Z,99744.69
2023-05-21T01:43:34.551Z,99745.72
2023-05-21T01:45:40.139Z,99749.25
2023-05-21T01:47:45.697Z,99743.50
2023-05-21T01:49:48.522Z,99753.22
2023-05-21T01:51:51.971Z,99749.94
2023-05-21T01:53:54.983Z,99750.31
2023-05-21T01:55:58.014Z,99750.06
2023-05-21T01:58:02.723Z,99755.22
2023-05-21T02:00:08.636Z,99747.81
2023-05-21T02:02:18.296Z,99743.84
2023-05-21T02:04:21.523Z,99740.91
2023-05-21T02:06:24.819Z,99741.72
2023-05-21T02:08:28.217Z,99738.22
2023-05-21T02:10:31.175Z,99743.00
2023-05-21T02:12:34.315Z,99748.41
2023-05-21T02:14:39.200Z,99738.94
2023-05-21T02:16:42.618Z,99749.34
2023-05-21T02:18:46.771Z,99735.84
2023-05-21T02:20:49.952Z,99737.75
2023-05-21T02:22:53.016Z,99737.16
2023-05-21T02:24:55.997Z,99740.28
2023-05-21T02:26:59.101Z,99736.66
2023-05-21T02:29:02.227Z,99736.66
2023-05-21T02:31:06.644Z,99734.44
2023-05-21T02:33:09.971Z,99739.22
2023-05-21T02:35:13.786Z,99737.56
2023-05-21T02:37:17.960Z,99727.25
2023-05-21T02:39:21.418Z,99737.31
2023-05-21T02:41:24.388Z,99728.19
2023-05-21T02:43:27.506Z,99730.88
2023-05-21T02:45:30.890Z,99728.75
2023-05-21T02:47:35.731Z,99728.81
2023-05-21T02:49:38.945Z,99725.69
2023-05-21T02:51:41.897Z,99728.16
2023-05-21T02:53:44.935Z,99732.72
2023-05-21T02:55:47.986Z,99727.31
2023-05-21T02:57:50.962Z,99728.97
2023-05-21T02:59:53.973Z,99731.69
2023-05-21T03:01:57.063Z,99737.88
2023-05-21T03:04:02.197Z,99728.97
2023-05-21T03:06:05.343Z,99723.59
2023-05-21T03:08:08.300Z,99724.63
2023-05-21T03:10:11.880Z,99729.41
2023-05-21T03:12:14.920Z,99729.31
2023-05-21T03:14:18.016Z,99726.69
2023-05-21T03:16:20.992Z,99731.41
2023-05-21T03:18:23.954Z,99727.41
2023-05-21T03:20:29.250Z,99732.00
2023-05-21T03:22:32.824Z,99723.06
2023-05-21T03:24:37.076Z,99725.84
2023-05-21T03:26:41.794Z,99726.56
2023-05-21T03:28:45.263Z,99725.06
2023-05-21T03:30:49.994Z,99723.06
2023-05-21T03:33:11.607Z,99723.44
2023-05-21T03:35:15.477Z,99725.88
2023-05-21T03:37:19.908Z,99724.63
2023-05-21T03:39:23.479Z,99726.03
2023-05-21T03:41:26.807Z,99730.72
2023-05-21T03:43:36.169Z,99734.41
2023-05-21T03:45:40.374Z,99736.88
2023-05-21T03:48:07.688Z,99740.16
2023-05-21T03:50:11.636Z,99741.09
2023-05-21T03:52:15.205Z,99740.88
2023-05-21T03:54:19.584Z,99743.56
2023-05-21T03:56:23.448Z,99745.44
2023-05-21T03:58:27.158Z,99749.09
2023-05-21T04:00:32.923Z,99747.00
2023-05-21T04:02:36.208Z,99749.81
2023-05-21T04:04:39.315Z,99755.81
2023-05-21T04:06:44.864Z,99750.84
2023-05-21T04:08:48.885Z,99751.44
2023-05-21T04:10:53.300Z,99754.97
2023-05-21T04:12:56.300Z,99758.75
2023-05-21T04:14:59.178Z,99755.22
2023-05-21T04:17:05.575Z,99754.97
2023-05-21T04:19:09.547Z,99756.41
2023-05-21T04:21:13.374Z,99756.41
2023-05-21T04:23:16.707Z,99762.16
2023-05-21T04:25:23.494Z,99753.59
2023-05-21T04:27:28.242Z,99755.59
2023-05-21T04:29:31.365Z,99758.63
2023-05-21T04:31:34.703Z,99761.56
2023-05-21T04:33:42.426Z,99761.13
2023-05-21T04:35:46.677Z,99764.19
2023-05-21T04:37:50.836Z,99765.56
2023-05-21T04:39:53.916Z,99764.28
2023-05-21T04:41:57.013Z,99766.75
2023-05-21T04:44:02.739Z,99770.28
2023-05-21T04:46:07.987Z,99771.47
2023-05-21T04:48:10.984Z,99773.72
2023-05-21T04:50:14.642Z,99774.69
2023-05-21T04:52:17.834Z,99780.53
2023-05-21T04:54:20.936Z,99781.25
2023-05-21T04:56:24.119Z,99773.03
2023-05-21T04:58:28.216Z,99777.25
2023-05-21T05:00:32.991Z,99770.91
2023-05-21T05:02:36.480Z,99768.09
2023-05-21T05:04:39.439Z,99769.59
2023-05-21T05:06:42.466Z,99768.41
2023-05-21T05:08:46.616Z,99769.91
2023-05-21T05:10:51.403Z,99764.38
2023-05-21T05:12:54.561Z,99758.59
2023-05-21T05:14:57.782Z,99765.84
2023-05-21T05:17:02.400Z,99763.03
2023-05-21T05:19:05.442Z,99753.13
2023-05-21T05:21:08.395Z,99758.16
2023-05-21T05:23:11.527Z,99752.94
2023-05-21T05:25:15.909Z,99757.16
2023-05-21T05:27:19.060Z,99755.94
2023-05-21T05:29:22.100Z,99752.91
2023-05-21T05:31:25.372Z,99758.19
2023-05-21T05:33:30.883Z,99756.13
2023-05-21T05:35:34.197Z,99752.03
2023-05-21T05:37:37.590Z,99755.16
2023-05-21T05:39:42.013Z,99750.22
2023-05-21T05:41:45.050Z,99758.28
2023-05-21T05:43:48.357Z,99756.59
2023-05-21T05:45:52.838Z,99756.09
2023-05-21T05:47:56.022Z,99747.53
2023-05-21T05:50:00.585Z,99760.00
2023-05-21T05:52:03.746Z,99755.84
2023-05-21T05:54:06.971Z,99750.56
2023-05-21T05:56:11.738Z,99764.25
2023-05-21T05:58:15.289Z,99763.00
2023-05-21T06:00:27.246Z,99758.41
2023-05-21T06:02:30.587Z,99766.38
2023-05-21T06:04:33.837Z,99754.97
2023-05-21T06:06:39.292Z,99751.53
2023-05-21T06:08:41.911Z,99753.47
2023-05-21T06:10:44.795Z,99755.66
2023-05-21T06:12:48.254Z,99757.41
2023-05-21T06:14:51.716Z,99755.19
2023-05-21T06:16:56.465Z,99760.19
2023-05-21T06:19:00.042Z,99759.34
2023-05-21T06:21:03.084Z,99764.53
2023-05-21T06:23:09.205Z,99750.91
2023-05-21T06:25:12.902Z,99755.25
2023-05-21T06:27:16.296Z,99754.44
2023-05-21T06:29:20.202Z,99755.78
2023-05-21T06:31:23.694Z,99750.41
2023-05-21T06:33:27.936Z,99751.16
2023-05-21T06:35:31.198Z,99748.88
2023-05-21T06:37:35.280Z,99749.34
2023-05-21T06:39:39.976Z,99739.72
2023-05-21T06:41:42.948Z,99744.47
2023-05-21T06:44:15.995Z,99742.63
2023-05-21T06:46:45.319Z,99745.47
2023-05-21T06:48:48.293Z,99749.34
2023-05-21T06:50:51.758Z,99744.53
2023-05-21T06:52:54.726Z,99745.97
2023-05-21T06:54:59.286Z,99744.56
2023-05-21T06:57:06.356Z,99737.03
2023-05-21T06:59:09.415Z,99733.66
2023-05-21T07:01:13.570Z,99727.06
2023-05-21T07:03:17.724Z,99736.84
2023-05-21T07:05:21.177Z,99741.94
2023-05-21T07:07:24.233Z,99739.97
2023-05-21T07:09:27.397Z,99721.97
2023-05-21T07:11:31.963Z,99725.34
2023-05-21T07:13:36.473Z,99734.22
2023-05-21T07:15:39.671Z,99728.63
2023-05-21T07:17:42.988Z,99737.00
2023-05-21T07:19:46.037Z,99729.06
2023-05-21T07:21:50.185Z,99725.03
2023-05-21T07:23:53.464Z,99728.88
2023-05-21T07:25:56.582Z,99731.44
2023-05-21T07:28:01.314Z,99728.28
2023-05-21T07:30:04.765Z,99731.94
2023-05-21T07:32:08.654Z,99734.72
2023-05-21T07:34:12.063Z,99728.56
2023-05-21T07:36:16.814Z,99732.56
2023-05-21T07:38:20.652Z,99719.66
2023-05-21T07:40:23.943Z,99730.28
2023-05-21T07:42:27.171Z,99714.94
2023-05-21T07:44:33.820Z,99725.66
2023-05-21T07:46:37.413Z,99728.66
2023-05-21T07:48:40.615Z,99720.94
2023-05-21T07:50:43.864Z,99726.22
2023-05-21T07:52:46.988Z,99724.38
2023-05-21T07:54:49.997Z,99715.34
2023-05-21T07:56:53.259Z,99713.81
2023-05-21T07:59:17.929Z,99724.91
2023-05-21T08:01:22.763Z,99720.00
2023-05-21T08:03:28.609Z,99717.81
2023-05-21T08:05:32.866Z,99717.84
2023-05-21T08:07:35.835Z,99721.56
2023-05-21T08:09:38.890Z,99724.25
2023-05-21T08:11:43.301Z,99724.97
2023-05-21T08:13:46.442Z,99718.53
2023-05-21T08:15:52.696Z,99720.34
2023-05-21T08:17:58.833Z,99718.59
2023-05-21T08:20:02.376Z,99706.28
2023-05-21T08:22:06.996Z,99711.22
2023-05-21T08:24:13.237Z,99705.84
2023-05-21T08:26:19.266Z,99709.25
2023-05-21T08:28:23.367Z,99712.00
2023-05-21T08:30:27.975Z,99702.75
2023-05-21T08:32:31.346Z,99703.16
2023-05-21T08:34:36.115Z,99697.06
2023-05-21T08:37:01.702Z,99696.44
2023-05-21T08:39:27.407Z,99699.75
2023-05-21T08:41:33.846Z,99695.59
2023-05-21T08:43:38.728Z,99707.41
2023-05-21T08:45:45.441Z,99705.91
2023-05-21T08:47:55.262Z,99697.47
2023-05-21T08:50:01.283Z,99695.00
2023-05-21T08:52:06.574Z,99693.88
2023-05-21T08:54:09.872Z,99691.69
2023-05-21T08:56:15.754Z,99687.63
2023-05-21T08:58:25.387Z,99690.72
2023-05-21T09:00:29.581Z,99694.84
2023-05-21T09:02:34.765Z,99686.50
2023-05-21T09:04:39.308Z,99682.56
2023-05-21T09:06:44.405Z,99679.13
2023-05-21T09:08:54.715Z,99683.97
2023-05-21T09:11:05.652Z,99679.53
2023-05-21T09:13:15.687Z,99688.31
2023-05-21T09:15:19.150Z,99682.63
2023-05-21T09:17:22.222Z,99684.81
2023-05-21T09:19:35.140Z,99676.38
2023-05-21T09:21:39.973Z,99679.69
2023-05-21T09:24:04.955Z,99679.31
2023-05-21T09:26:13.073Z,99678.75
2023-05-21T09:28:17.353Z,99675.56
2023-05-21T09:30:24.059Z,99672.38
2023-05-21T09:32:29.335Z,99679.06
2023-05-21T09:34:36.576Z,99673.22
2023-05-21T09:36:39.555Z,99670.94
2023-05-21T09:38:42.514Z,99673.38
2023-05-21T09:40:47.192Z,99667.66
2023-05-21T09:42:53.341Z,99655.34
2023-05-21T09:44:56.510Z,99664.56
2023-05-21T09:47:00.205Z,99662.34
2023-05-21T09:49:03.288Z,99662.03
2023-05-21T09:51:11.410Z,99659.41
2023-05-21T09:53:16.891Z,99656.81
2023-05-21T09:55:22.985Z,99654.72
2023-05-21T09:57:27.595Z,99653.63
2023-05-21T09:59:37.401Z,99654.72
2023-05-21T10:01:40.573Z,99662.50
2023-05-21T10:03:49.913Z,99652.44
2023-05-21T10:05:54.280Z,99661.84
2023-05-21T10:08:01.197Z,99648.22
2023-05-21T10:10:07.183Z,99644.31
2023-05-21T10:12:11.256Z,99643.66
2023-05-21T10:14:20.155Z,99644.50
2023-05-21T10:16:24.255Z,99644.00
2023-05-21T10:18:28.764Z,99638.13
2023-05-21T10:20:32.327Z,99640.09
2023-05-21T10:22:36.034Z,99641.88
2023-05-21T10:24:41.034Z,99634.84
2023-05-21T10:26:45.274Z,99633.16
2023-05-21T10:28:49.244Z,99626.78
2023-05-21T10:30:54.833Z,99632.13
2023-05-21T10:32:58.987Z,99627.44
2023-05-21T10:35:02.899Z,99632.78
2023-05-21T10:37:09.803Z,99632.44
2023-05-21T10:39:13.646Z,99631.66
2023-05-21T10:41:19.575Z,99625.28
2023-05-21T10:43:53.414Z,99619.19
2023-05-21T10:46:29.452Z,99622.47
2023-05-21T10:48:50.256Z,99620.06
2023-05-21T10:51:13.853Z,99618.28
2023-05-21T10:53:25.734Z,99614.22
2023-05-21T10:55:43.451Z,99613.94
2023-05-21T10:58:14.153Z,99614.59
2023-05-21T11:00:20.930Z,99613.78
2023-05-21T11:02:27.169Z,99606.94
2023-05-21T11:04:30.336Z,99609.44
2023-05-21T11:06:33.636Z,99607.78
2023-05-21T11:08:37.899Z,99603.91
2023-05-21T11:10:41.773Z,99605.16
2023-05-21T11:13:06.533Z,99607.69
2023-05-21T11:15:16.700Z,99606.47
2023-05-21T11:17:39.335Z,99603.72
2023-05-21T11:19:43.862Z,99605.56
2023-05-21T11:21:51.697Z,99607.63
2023-05-21T11:23:55.746Z,99612.19
2023-05-21T11:26:02.564Z,99600.88
2023-05-21T11:28:09.782Z,99605.63
2023-05-21T11:30:16.703Z,99609.84
2023-05-21T11:32:20.924Z,99612.72
2023-05-21T11:34:29.004Z,99612.00
2023-05-21T11:36:33.034Z,99600.47
2023-05-21T11:38:38.487Z,99606.25
2023-05-21T11:40:51.605Z,99604.31
2023-05-21T11:42:56.315Z,99601.50
2023-05-21T11:45:00.022Z,99600.28
2023-05-21T11:47:03.636Z,99599.00
2023-05-21T11:49:07.140Z,99596.19
2023-05-21T11:51:11.791Z,99596.28
2023-05-21T11:53:16.146Z,99594.00
2023-05-21T11:55:23.015Z,99595.44
2023-05-21T11:57:31.090Z,99601.38
2023-05-21T11:59:34.794Z,99590.22
2023-05-21T12:01:37.623Z,99587.09
2023-05-21T12:03:41.397Z,99589.44
2023-05-21T12:05:48.822Z,99591.03
2023-05-21T12:07:54.931Z,99580.97
2023-05-21T12:09:58.543Z,99585.66
2023-05-21T12:12:02.496Z,99583.06
2023-05-21T12:14:07.910Z,99580.88
2023-05-21T12:16:11.242Z,99582.06
2023-05-21T12:18:16.971Z,99571.22
2023-05-21T12:20:20.347Z,99572.50
2023-05-21T12:22:24.907Z,99571.19
2023-05-21T12:24:29.645Z,99573.88
2023-05-21T12:26:33.704Z,99578.00
2023-05-21T12:28:37.666Z,99574.97
2023-05-21T12:30:40.687Z,99570.03
2023-05-21T12:32:46.979Z,99568.25
2023-05-21T12:34:51.677Z,99560.69
2023-05-21T12:36:54.747Z,99559.88
2023-05-21T12:38:58.267Z,99559.34
2023-05-21T12:41:06.487Z,99559.59
2023-05-21T12:43:09.482Z,99566.41
2023-05-21T12:45:13.202Z,99564.16
2023-05-21T12:47:16.250Z,99562.50
2023-05-21T12:49:32.804Z,99562.19
2023-05-21T12:51:40.324Z,99563.50
2023-05-21T12:53:43.968Z,99546.38
2023-05-21T12:55:47.032Z,99547.03
2023-05-21T12:58:00.465Z,99556.19
2023-05-21T13:00:07.018Z,99551.50
2023-05-21T13:02:13.660Z,99558.34
2023-05-21T13:04:19.658Z,99547.13
2023-05-21T13:06:22.888Z,99553.31
2023-05-21T13:08:26.543Z,99549.22
2023-05-21T13:10:30.202Z,99548.41
2023-05-21T13:12:34.658Z,99551.28
2023-05-21T13:14:39.696Z,99549.53
2023-05-21T13:16:42.657Z,99540.25
2023-05-21T13:18:45.760Z,99539.06
2023-05-21T13:20:49.183Z,99527.03
2023-05-21T13:22:52.604Z,99536.19
2023-05-21T13:24:55.537Z,99536.91
2023-05-21T13:26:58.584Z,99536.66
2023-05-21T13:29:01.688Z,99529.91
2023-05-21T13:31:06.375Z,99530.63
2023-05-21T13:33:09.325Z,99528.59
2023-05-21T13:35:12.617Z,99523.84
2023-05-21T13:37:16.157Z,99530.38
2023-05-21T13:39:19.676Z,99528.63
2023-05-21T13:41:22.661Z,99519.47
2023-05-21T13:43:25.801Z,99524.22
2023-05-21T13:45:29.636Z,99530.53
2023-05-21T13:47:36.183Z,99530.69
2023-05-21T13:49:41.035Z,99532.56
2023-05-21T13:51:43.998Z,99528.34
2023-05-21T13:53:48.248Z,99524.34
2023-05-21T13:55:51.237Z,99518.66
2023-05-21T13:57:54.153Z,99522.09
2023-05-21T13:59:57.472Z,99528.66
2023-05-21T14:02:00.435Z,99513.13
2023-05-21T14:04:06.030Z,99516.38
2023-05-21T14:06:08.792Z,99517.81
2023-05-21T14:08:12.893Z,99519.44
2023-05-21T14:10:16.086Z,99523.59
2023-05-21T14:12:19.499Z,99509.59
2023-05-21T14:14:22.955Z,99507.78
2023-05-21T14:16:27.754Z,99506.94
2023-05-21T14:18:30.736Z,99506.03
2023-05-21T14:20:35.229Z,99513.03
2023-05-21T14:22:38.903Z,99510.28
2023-05-21T14:24:41.991Z,99513.03
2023-05-21T14:26:44.852Z,99515.13
2023-05-21T14:28:47.932Z,99505.19
2023-05-21T14:30:50.895Z,99504.28
2023-05-21T14:32:55.463Z,99502.00
2023-05-21T14:35:00.419Z,99515.03
2023-05-21T14:37:05.506Z,99506.38
2023-05-21T14:39:08.441Z,99509.31
2023-05-21T14:41:11.512Z,99506.16
2023-05-21T14:43:14.417Z,99503.28
2023-05-21T14:45:19.192Z,99511.06
2023-05-21T14:47:22.542Z,99510.41
2023-05-21T14:49:25.594Z,99521.03
2023-05-21T14:51:28.643Z,99513.91
2023-05-21T14:53:33.062Z,99516.00
2023-05-21T14:55:37.334Z,99518.41
2023-05-21T14:57:40.712Z,99511.97
2023-05-21T14:59:43.592Z,99517.94
2023-05-21T15:01:46.931Z,99513.41
2023-05-21T15:03:50.066Z,99513.06
2023-05-21T15:05:53.229Z,99514.69
2023-05-21T15:07:56.491Z,99510.97
2023-05-21T15:10:01.004Z,99516.31
2023-05-21T15:12:04.311Z,99514.19
2023-05-21T15:14:07.296Z,99516.75
2023-05-21T15:16:10.289Z,99515.25
2023-05-21T15:18:13.456Z,99518.34
2023-05-21T15:20:16.882Z,99514.19
2023-05-21T15:22:20.073Z,99516.63
2023-05-21T15:24:23.043Z,99517.69
2023-05-21T15:26:27.515Z,99516.72
2023-05-21T15:28:30.472Z,99525.94
2023-05-21T15:30:33.436Z,99517.22
2023-05-21T15:32:36.665Z,99522.63
2023-05-21T15:34:39.697Z,99517.22
2023-05-21T15:36:42.689Z,99522.41
2023-05-21T15:38:45.982Z,99517.78
2023-05-21T15:40:48.904Z,99523.41
2023-05-21T15:42:53.664Z,99516.56
2023-05-21T15:44:56.519Z,99512.88
2023-05-21T15:46:59.527Z,99508.66
2023-05-21T15:49:02.600Z,99510.28
2023-05-21T15:51:05.796Z,99517.50
2023-05-21T15:53:11.111Z,99507.22
2023-05-21T15:55:14.462Z,99510.09
2023-05-21T15:57:17.405Z,99505.91
2023-05-21T15:59:21.985Z,99520.88
2023-05-21T16:01:26.140Z,99513.25
2023-05-21T16:03:29.259Z,99518.16
2023-05-21T16:05:32.175Z,99514.50
2023-05-21T16:07:37.055Z,99521.00
2023-05-21T16:09:41.146Z,99515.66
2023-05-21T16:11:49.134Z,99517.22
2023-05-21T16:13:52.211Z,99522.56
2023-05-21T16:15:56.666Z,99517.06
2023-05-21T16:17:59.684Z,99511.81
2023-05-21T16:20:02.645Z,99517.38
2023-05-21T16:22:05.835Z,99515.59
2023-05-21T16:24:09.242Z,99513.72
2023-05-21T16:26:12.196Z,99521.78
2023-05-21T16:28:15.276Z,99522.72
2023-05-21T16:30:18.423Z,99517.09
2023-05-21T16:32:23.168Z,99519.47
2023-05-21T16:34:26.633Z,99517.22
2023-05-21T16:36:29.668Z,99516.53
2023-05-21T16:38:32.714Z,99515.91
2023-05-21T16:40:35.763Z,99512.84
2023-05-21T16:42:40.098Z,99513.47
2023-05-21T16:44:43.135Z,99508.38
2023-05-21T16:46:46.041Z,99501.22
2023-05-21T16:48:50.523Z,99512.56
2023-05-21T16:50:53.833Z,99516.66
2023-05-21T16:52:56.825Z,99512.69
2023-05-21T16:54:59.764Z,99510.63
2023-05-21T16:57:02.723Z,99505.44
2023-05-21T16:59:05.828Z,99513.56
2023-05-21T17:01:08.989Z,99515.28
2023-05-21T17:03:13.051Z,99512.63
2023-05-21T17:05:17.839Z,99522.56
2023-05-21T17:07:21.095Z,99517.38
2023-05-21T17:09:24.268Z,99524.44
2023-05-21T17:11:27.368Z,99524.56
2023-05-21T17:13:30.363Z,99525.72
2023-05-21T17:15:33.500Z,99523.59
2023-05-21T17:17:36.582Z,99520.66
2023-05-21T17:19:39.464Z,99526.59
2023-05-21T17:21:43.997Z,99525.03
2023-05-21T17:23:46.880Z,99523.47
2023-05-21T17:25:50.135Z,99527.59
2023-05-21T17:27:53.568Z,99533.00
2023-05-21T17:29:57.565Z,99530.47
2023-05-21T17:32:00.898Z,99526.69
2023-05-21T17:34:04.113Z,99530.25
2023-05-21T17:36:07.310Z,99530.88
2023-05-21T17:38:12.291Z,99532.22
2023-05-21T17:40:15.497Z,99535.53
2023-05-21T17:42:18.898Z,99533.13
2023-05-21T17:44:22.052Z,99533.69
2023-05-21T17:46:24.927Z,99539.50
2023-05-21T17:48:27.944Z,99533.03
2023-05-21T17:50:30.934Z,99534.75
2023-05-21T17:52:33.761Z,99523.34
2023-05-21T17:54:38.111Z,99527.06
2023-05-21T17:56:41.033Z,99528.47
2023-05-21T17:58:43.893Z,99531.59
2023-05-21T18:00:46.782Z,99534.13
2023-05-21T18:02:49.691Z,99531.22
2023-05-21T18:04:52.774Z,99535.41
2023-05-21T18:06:56.206Z,99526.13
2023-05-21T18:08:59.385Z,99537.66
2023-05-21T18:11:03.931Z,99528.72
2023-05-21T18:13:06.832Z,99528.53
2023-05-21T18:15:10.502Z,99528.28
2023-05-21T18:17:13.503Z,99531.72
2023-05-21T18:19:16.651Z,99533.63
2023-05-21T18:21:19.564Z,99538.53
2023-05-21T18:23:22.554Z,99534.81
2023-05-21T18:25:25.362Z,99533.72
2023-05-21T18:27:29.802Z,99538.16
2023-05-21T18:29:32.713Z,99549.13
2023-05-21T18:31:36.048Z,99539.06
2023-05-21T18:33:38.971Z,99540.97
2023-05-21T18:35:42.246Z,99544.84
2023-05-21T18:37:47.027Z,99556.28
2023-05-21T18:39:50.102Z,99551.94
2023-05-21T18:42:01.639Z,99548.41
2023-05-21T18:44:16.452Z,99555.22
2023-05-21T18:46:19.779Z,99560.16
2023-05-21T18:48:22.991Z,99556.00
2023-05-21T18:50:26.063Z,99554.38
2023-05-21T18:52:29.171Z,99556.47
2023-05-21T18:54:32.224Z,99555.66
2023-05-21T18:56:35.199Z,99560.47
2023-05-21T18:58:38.951Z,99559.88
2023-05-21T19:00:43.677Z,99557.13
2023-05-21T19:02:47.304Z,99557.06
2023-05-21T19:04:50.562Z,99566.09
2023-05-21T19:06:53.434Z,99554.44
2023-05-21T19:08:56.404Z,99565.31
2023-05-21T19:10:59.326Z,99563.06
2023-05-21T19:13:03.365Z,99576.13
2023-05-21T19:15:08.564Z,99574.44
2023-05-21T19:17:13.953Z,99567.47
2023-05-21T19:19:17.048Z,99572.66
2023-05-21T19:21:20.267Z,99566.03
2023-05-21T19:23:24.962Z,99577.78
2023-05-21T19:25:28.025Z,99576.47
2023-05-21T19:27:30.981Z,99579.16
2023-05-21T19:29:34.246Z,99574.97
2023-05-21T19:31:37.556Z,99579.25
2023-05-21T19:33:42.131Z,99574.13
2023-05-21T19:35:45.124Z,99578.13
2023-05-21T19:37:48.097Z,99575.56
2023-05-21T19:39:50.896Z,99572.56
2023-05-21T19:41:53.936Z,99578.03
2023-05-21T19:43:56.909Z,99568.28
2023-05-21T19:45:59.906Z,99573.50
2023-05-21T19:48:03.271Z,99568.03
2023-05-21T19:50:09.741Z,99569.91
2023-05-21T19:52:12.812Z,99559.22
2023-05-21T19:54:15.955Z,99563.16
2023-05-21T19:56:19.078Z,99559.28
2023-05-21T19:58:27.235Z,99565.94
2023-05-21T20:00:30.394Z,99561.66
2023-05-21T20:02:34.887Z,99559.28
2023-05-21T20:04:37.898Z,99556.25
2023-05-21T20:06:42.478Z,99554.75
2023-05-21T20:08:45.364Z,99561.66
2023-05-21T20:10:51.357Z,99560.28
2023-05-21T20:12:54.803Z,99554.19
2023-05-21T20:14:59.756Z,99554.75
2023-05-21T20:17:02.878Z,99552.34
2023-05-21T20:19:06.139Z,99555.31
2023-05-21T20:21:09.189Z,99552.53
2023-05-21T20:23:14.139Z,99548.06
2023-05-21T20:25:17.023Z,99548.06
2023-05-21T20:27:20.322Z,99551.59
2023-05-21T20:29:23.703Z,99559.97
2023-05-21T20:31:27.739Z,99554.56
2023-05-21T20:33:32.291Z,99556.81
2023-05-21T20:35:35.393Z,99557.59
2023-05-21T20:37:38.571Z,99557.56
2023-05-21T20:39:45.484Z,99555.72
2023-05-21T20:41:48.718Z,99554.34
2023-05-21T20:43:52.678Z,99555.31
2023-05-21T20:46:00.056Z,99551.00
2023-05-21T20:48:03.823Z,99549.03
2023-05-21T20:50:07.461Z,99551.03
2023-05-21T20:52:10.530Z,99551.59
2023-05-21T20:54:13.464Z,99543.72
2023-05-21T20:56:29.835Z,99550.78
2023-05-21T20:58:43.260Z,99539.13
2023-05-21T21:00:46.909Z,99547.25
2023-05-21T21:02:49.991Z,99546.19
2023-05-21T21:04:54.163Z,99546.72
2023-05-21T21:06:57.025Z,99545.13
2023-05-21T21:08:59.999Z,99550.22
2023-05-21T21:11:02.983Z,99552.09
2023-05-21T21:13:07.548Z,99551.34
2023-05-21T21:15:10.804Z,99551.78
2023-05-21T21:17:13.748Z,99552.34
2023-05-21T21:19:16.586Z,99558.06
2023-05-21T21:21:19.688Z,99553.91
2023-05-21T21:23:25.340Z,99549.06
2023-05-21T21:25:28.261Z,99555.53
2023-05-21T21:27:31.312Z,99558.25
2023-05-21T21:29:35.876Z,99563.06
2023-05-21T21:31:38.973Z,99562.03
2023-05-21T21:33:42.140Z,99564.66
2023-05-21T21:35:45.105Z,99569.00
2023-05-21T21:37:48.115Z,99567.81
2023-05-21T21:39:51.167Z,99564.78
2023-05-21T21:41:54.199Z,99560.94
2023-05-21T21:43:57.324Z,99562.25
2023-05-21T21:46:01.873Z,99561.19
2023-05-21T21:48:05.210Z,99557.41
2023-05-21T21:50:09.177Z,99564.38
2023-05-21T21:52:12.572Z,99565.44
2023-05-21T21:54:15.595Z,99564.56
2023-05-21T21:56:18.595Z,99556.09
2023-05-21T21:58:21.906Z,99566.09
2023-05-21T22:00:27.021Z,99565.53
2023-05-21T22:02:31.456Z,99564.72
2023-05-21T22:04:34.354Z,99565.69
2023-05-21T22:06:39.297Z,99571.09
2023-05-21T22:08:42.279Z,99566.75
2023-05-21T22:10:45.847Z,99560.53
2023-05-21T22:12:48.755Z,99560.41
2023-05-21T22:14:51.777Z,99572.81
2023-05-21T22:16:55.540Z,99565.44
2023-05-21T22:19:00.240Z,99562.41
2023-05-21T22:21:04.182Z,99561.25
2023-05-21T22:23:07.197Z,99568.19
2023-05-21T22:25:10.427Z,99558.94
2023-05-21T22:27:13.595Z,99562.59
2023-05-21T22:29:16.517Z,99567.09
2023-05-21T22:31:19.669Z,99560.78
2023-05-21T22:33:22.940Z,99559.88
2023-05-21T22:35:27.399Z,99566.00
2023-05-21T22:37:30.220Z,99565.66
2023-05-21T22:39:33.225Z,99565.53
2023-05-21T22:41:36.286Z,99566.03
2023-05-21T22:43:39.293Z,99563.00
2023-05-21T22:45:42.546Z,99559.34
2023-05-21T22:47:45.690Z,99568.78
2023-05-21T22:49:48.548Z,99566.78
2023-05-21T22:51:54.634Z,99569.41
2023-05-21T22:53:57.508Z,99573.72
2023-05-21T22:56:00.868Z,99571.38
2023-05-21T22:58:03.766Z,99570.47
2023-05-21T23:00:08.097Z,99566.59
2023-05-21T23:02:11.253Z,99559.56
2023-05-21T23:04:15.492Z,99564.63
2023-05-21T23:06:18.663Z,99565.31
2023-05-21T23:08:23.109Z,99567.56
2023-05-21T23:10:26.470Z,99561.31
2023-05-21T23:12:29.582Z,99560.63
2023-05-21T23:14:32.685Z,99558.41
2023-05-21T23:16:35.677Z,99557.81
2023-05-21T23:18:40.476Z,99555.81
2023-05-21T23:20:44.008Z,99560.97
2023-05-21T23:22:46.896Z,99556.91
2023-05-21T23:24:51.740Z,99553.63
2023-05-21T23:26:56.967Z,99561.13
2023-05-21T23:28:59.869Z,99551.38
2023-05-21T23:31:03.138Z,99549.16
2023-05-21T23:33:06.901Z,99544.00
2023-05-21T23:35:10.729Z,99547.75
2023-05-21T23:37:13.774Z,99551.50
2023-05-21T23:39:16.790Z,99559.81
2023-05-21T23:41:21.393Z,99548.91
2023-05-21T23:43:24.364Z,99548.91
2023-05-21T23:45:27.417Z,99551.84
2023-05-21T23:47:30.598Z,99542.94
2023-05-21T23:49:33.677Z,99542.09
2023-05-21T23:51:36.770Z,99545.53
2023-05-21T23:53:39.777Z,99546.81
2023-05-21T23:55:42.773Z,99543.53
2023-05-21T23:57:47.121Z,99542.59
2023-05-21T23:59:50.078Z,99543.38
